< < Back
Terminal Aerodrome Forecast


Current Version              Previous Versions:   1  2  3  4  5  6  7  8  9  

Terminal Aerodrome Forecast

238
FTUS42 KCAE 281400 AAA
TAFAGS
TAF AMD
KAGS 281454Z 2815/2912 VRB05KT P6SM SKC=



Latest METAR

708
SAUS70 KWBC 281500 RRD
MTRAGS
METAR KAGS 281453Z VRB05KT 10SM CLR 29/16 A3005 RMK AO2 SLP174 T02890161
53002


USA.gov is the U.S. government's official web portal to all federal, state and local government web resources and services.